createdAt,value
2019-02-12T00:01:40.495Z,101982.83
2019-02-12T00:04:08.728Z,101983.39
2019-02-12T00:06:37.018Z,101976.02
2019-02-12T00:09:07.292Z,101978.32
2019-02-12T00:11:35.544Z,101980.09
2019-02-12T00:14:03.822Z,101991.58
2019-02-12T00:16:32.118Z,101982.84
2019-02-12T00:19:00.375Z,101992.59
2019-02-12T00:21:28.608Z,101996.22
2019-02-12T00:23:56.879Z,102003.40
2019-02-12T00:26:25.161Z,102000.42
2019-02-12T00:28:53.403Z,102007.58
2019-02-12T00:31:21.679Z,102009.53
2019-02-12T00:33:49.926Z,102006.20
2019-02-12T00:36:18.204Z,102008.50
2019-02-12T00:38:46.444Z,102007.62
2019-02-12T00:41:14.951Z,102010.22
2019-02-12T00:43:43.191Z,102007.48
2019-02-12T00:46:11.469Z,102001.61
2019-02-12T00:48:39.772Z,101999.22
2019-02-12T00:51:08.026Z,102001.16
2019-02-12T00:53:36.272Z,102009.30
2019-02-12T00:56:04.564Z,102006.00
2019-02-12T00:58:32.842Z,102012.77
2019-02-12T01:01:01.100Z,102012.11
2019-02-12T01:03:29.376Z,102011.92
2019-02-12T01:05:57.723Z,102013.91
2019-02-12T01:08:25.974Z,102007.55
2019-02-12T01:10:54.263Z,102012.72
2019-02-12T01:13:22.508Z,102011.22
2019-02-12T01:15:50.783Z,102001.44
2019-02-12T01:18:19.108Z,101999.12
2019-02-12T01:20:47.363Z,101998.56
2019-02-12T01:23:15.717Z,101992.70
2019-02-12T01:25:43.991Z,101992.61
2019-02-12T01:28:12.232Z,101992.06
2019-02-12T01:30:40.542Z,101995.97
2019-02-12T01:33:08.798Z,102007.41
2019-02-12T01:35:37.059Z,102010.12
2019-02-12T01:38:05.336Z,102015.98
2019-02-12T01:40:33.721Z,102013.09
2019-02-12T01:43:02.176Z,102023.91
2019-02-12T01:45:30.475Z,102020.63
2019-02-12T01:47:58.751Z,102029.18
2019-02-12T01:50:27.002Z,102024.08
2019-02-12T01:52:55.302Z,102033.84
2019-02-12T01:55:23.549Z,102026.35
2019-02-12T01:57:51.787Z,102035.14
2019-02-12T02:00:20.103Z,102034.66
2019-02-12T02:02:48.333Z,102031.95
2019-02-12T02:05:16.848Z,102034.09
2019-02-12T02:07:45.140Z,102038.88
2019-02-12T02:10:15.825Z,102043.16
2019-02-12T02:12:44.099Z,102037.77
2019-02-12T02:15:12.888Z,102039.47
2019-02-12T02:17:41.162Z,102040.80
2019-02-12T02:20:14.429Z,102041.62
2019-02-12T02:22:42.843Z,102043.48
2019-02-12T02:25:12.658Z,102045.80
2019-02-12T02:27:41.008Z,102050.73
2019-02-12T02:30:11.669Z,102053.53
2019-02-12T02:32:39.938Z,102050.58
2019-02-12T02:35:08.220Z,102048.53
2019-02-12T02:37:36.498Z,102044.67
2019-02-12T02:40:06.775Z,102045.67
2019-02-12T02:42:35.087Z,102043.54
2019-02-12T02:45:03.331Z,102045.01
2019-02-12T02:47:31.629Z,102046.83
2019-02-12T02:49:59.910Z,102046.93
2019-02-12T02:52:28.184Z,102050.95
2019-02-12T02:54:56.438Z,102058.94
2019-02-12T02:57:24.714Z,102057.71
2019-02-12T02:59:52.997Z,102055.12
2019-02-12T03:02:21.270Z,102059.12
2019-02-12T03:04:49.621Z,102058.70
2019-02-12T03:07:18.168Z,102060.95
2019-02-12T03:09:46.680Z,102053.51
2019-02-12T03:12:14.957Z,102057.08
2019-02-12T03:14:43.201Z,102058.41
2019-02-12T03:17:11.477Z,102062.41
2019-02-12T03:19:39.749Z,102060.70
2019-02-12T03:22:08.119Z,102058.95
2019-02-12T03:24:36.369Z,102066.91
2019-02-12T03:27:04.642Z,102073.08
2019-02-12T03:29:32.892Z,102084.95
2019-02-12T03:32:01.192Z,102085.88
2019-02-12T03:34:29.543Z,102083.33
2019-02-12T03:36:57.849Z,102084.66
2019-02-12T03:39:26.481Z,102082.06
2019-02-12T03:41:54.785Z,102086.06
2019-02-12T03:44:23.028Z,102078.15
2019-02-12T03:46:51.284Z,102083.43
2019-02-12T03:49:19.714Z,102088.31
2019-02-12T03:51:48.022Z,102085.71
2019-02-12T03:54:16.290Z,102083.95
2019-02-12T03:56:44.632Z,102078.24
2019-02-12T03:59:12.925Z,102073.45
2019-02-12T04:01:41.184Z,102068.61
2019-02-12T04:04:09.427Z,102075.11
2019-02-12T04:06:37.748Z,102066.27
2019-02-12T04:09:06.061Z,102070.63
2019-02-12T04:11:34.302Z,102074.09
2019-02-12T04:14:02.571Z,102070.57
2019-02-12T04:16:30.882Z,102076.25
2019-02-12T04:18:59.492Z,102078.89
2019-02-12T04:21:27.815Z,102083.73
2019-02-12T04:23:56.115Z,102083.29
2019-02-12T04:26:24.367Z,102088.17
2019-02-12T04:28:52.611Z,102089.98
2019-02-12T04:31:20.907Z,102092.18
2019-02-12T04:33:49.226Z,102093.11
2019-02-12T04:36:17.476Z,102092.70
2019-02-12T04:38:45.840Z,102086.59
2019-02-12T04:41:14.092Z,102081.81
2019-02-12T04:43:42.353Z,102080.58
2019-02-12T04:46:10.641Z,102081.05
2019-02-12T04:48:39.015Z,102078.02
2019-02-12T04:51:07.296Z,102082.87
2019-02-12T04:53:35.563Z,102080.70
2019-02-12T04:56:03.858Z,102082.47
2019-02-12T04:58:32.122Z,102085.59
2019-02-12T05:01:00.565Z,102090.42
2019-02-12T05:03:28.997Z,102086.52
2019-02-12T05:05:57.255Z,102088.31
2019-02-12T05:08:25.538Z,102082.59
2019-02-12T05:11:05.405Z,102089.67
2019-02-12T05:13:33.695Z,102091.91
2019-02-12T05:16:01.941Z,102089.76
2019-02-12T05:18:30.216Z,102084.56
2019-02-12T05:20:58.494Z,102085.48
2019-02-12T05:23:26.760Z,102089.48
2019-02-12T05:25:55.041Z,102085.53
2019-02-12T05:28:23.360Z,102090.84
2019-02-12T05:30:51.672Z,102087.32
2019-02-12T05:33:19.942Z,102086.00
2019-02-12T05:35:48.214Z,102084.61
2019-02-12T05:38:16.462Z,102093.80
2019-02-12T05:40:44.769Z,102092.91
2019-02-12T05:43:13.021Z,102096.43
2019-02-12T05:45:41.337Z,102102.10
2019-02-12T05:48:09.630Z,102100.34
2019-02-12T05:50:37.889Z,102103.78
2019-02-12T05:53:06.742Z,102101.63
2019-02-12T05:55:35.164Z,102100.30
2019-02-12T05:58:03.417Z,102105.58
2019-02-12T06:00:33.574Z,102109.93
2019-02-12T06:03:01.910Z,102112.53
2019-02-12T06:05:30.515Z,102112.01
2019-02-12T06:07:58.981Z,102112.77
2019-02-12T06:10:27.307Z,102112.23
2019-02-12T06:12:55.603Z,102113.47
2019-02-12T06:15:23.851Z,102117.73
2019-02-12T06:17:52.140Z,102114.56
2019-02-12T06:20:20.398Z,102113.59
2019-02-12T06:22:48.640Z,102114.34
2019-02-12T06:25:16.954Z,102115.16
2019-02-12T06:27:45.213Z,102111.98
2019-02-12T06:30:13.620Z,102119.38
2019-02-12T06:32:41.871Z,102112.38
2019-02-12T06:35:10.455Z,102111.40
2019-02-12T06:37:38.693Z,102119.27
2019-02-12T06:40:11.597Z,102120.98
2019-02-12T06:42:39.861Z,102123.97
2019-02-12T06:45:12.301Z,102127.01
2019-02-12T06:47:40.556Z,102126.07
2019-02-12T06:50:13.798Z,102134.82
2019-02-12T06:52:42.131Z,102129.88
2019-02-12T06:55:11.200Z,102129.83
2019-02-12T06:57:39.454Z,102137.27
2019-02-12T07:00:12.456Z,102135.45
2019-02-12T07:03:12.804Z,102140.23
2019-02-12T07:05:59.567Z,102139.31
2019-02-12T07:08:52.294Z,102141.08
2019-02-12T07:11:36.037Z,102151.16
2019-02-12T07:14:25.674Z,102153.80
2019-02-12T07:17:05.768Z,102168.72
2019-02-12T07:19:59.666Z,102172.63
2019-02-12T07:22:33.848Z,102171.25
2019-02-12T07:25:23.288Z,102169.00
2019-02-12T07:28:00.991Z,102177.27
2019-02-12T07:30:48.981Z,102186.91
2019-02-12T07:33:32.528Z,102193.91
2019-02-12T07:36:35.852Z,102195.22
2019-02-12T07:39:13.242Z,102203.54
2019-02-12T07:41:47.291Z,102213.18
2019-02-12T07:44:33.138Z,102216.66
2019-02-12T07:47:07.619Z,102214.45
2019-02-12T07:49:47.759Z,102221.45
2019-02-12T07:52:19.306Z,102219.63
2019-02-12T07:54:59.253Z,102222.66
2019-02-12T07:57:48.703Z,102221.69
2019-02-12T08:00:20.291Z,102223.39
2019-02-12T08:03:18.974Z,102232.59
2019-02-12T08:06:08.583Z,102225.92
2019-02-12T08:08:46.051Z,102238.59
2019-02-12T08:11:20.177Z,102238.05
2019-02-12T08:14:24.483Z,102250.28
2019-02-12T08:16:58.751Z,102251.48
2019-02-12T08:20:00.624Z,102247.92
2019-02-12T08:22:59.586Z,102256.23
2019-02-12T08:25:52.430Z,102264.52
2019-02-12T08:28:40.714Z,102266.70
2019-02-12T08:31:20.540Z,102273.66
2019-02-12T08:33:54.965Z,102271.00
2019-02-12T08:36:26.478Z,102275.36
2019-02-12T08:39:04.632Z,102278.00
2019-02-12T08:41:38.687Z,102271.78
2019-02-12T08:44:30.002Z,102275.30
2019-02-12T08:47:21.244Z,102283.12
2019-02-12T08:50:07.926Z,102286.15
2019-02-12T08:53:13.094Z,102282.01
2019-02-12T08:55:47.520Z,102290.22
2019-02-12T08:58:24.394Z,102303.34
2019-02-12T09:00:58.706Z,102310.78
2019-02-12T09:03:45.080Z,102305.42
2019-02-12T09:06:19.253Z,102304.00
2019-02-12T09:08:56.541Z,102303.55
2019-02-12T09:12:02.748Z,102309.71
2019-02-12T09:15:09.483Z,102304.31
2019-02-12T09:18:03.687Z,102313.06
2019-02-12T09:20:54.474Z,102318.20
2019-02-12T09:23:31.626Z,102310.17
2019-02-12T09:26:03.140Z,102310.95
2019-02-12T09:28:34.704Z,102304.19
2019-02-12T09:31:22.542Z,102301.92
2019-02-12T09:34:12.222Z,102303.63
2019-02-12T09:36:55.952Z,102304.48
2019-02-12T09:39:43.940Z,102310.55
2019-02-12T09:42:30.044Z,102311.31
2019-02-12T09:45:10.186Z,102311.99
2019-02-12T09:48:01.150Z,102313.04
2019-02-12T09:50:47.776Z,102321.42
2019-02-12T09:53:35.826Z,102309.94
2019-02-12T09:56:22.636Z,102314.41
2019-02-12T09:59:14.534Z,102309.21
2019-02-12T10:01:48.644Z,102310.65
2019-02-12T10:04:36.517Z,102316.05
2019-02-12T10:07:13.971Z,102319.84
2019-02-12T10:09:48.457Z,102317.87
2019-02-12T10:12:28.914Z,102321.83
2019-02-12T10:15:00.640Z,102324.84
2019-02-12T10:17:50.747Z,102322.39
2019-02-12T10:20:25.113Z,102329.75
2019-02-12T10:22:57.036Z,102332.09
2019-02-12T10:25:25.870Z,102331.06
2019-02-12T10:28:00.356Z,102336.81
2019-02-12T10:30:43.877Z,102335.52
2019-02-12T10:33:12.191Z,102333.88
2019-02-12T10:35:40.515Z,102332.95
2019-02-12T10:38:08.780Z,102337.76
2019-02-12T10:40:37.088Z,102341.50
2019-02-12T10:43:05.575Z,102330.48
2019-02-12T10:45:33.816Z,102325.80
2019-02-12T10:48:02.091Z,102325.04
2019-02-12T10:50:30.394Z,102320.55
2019-02-12T10:52:58.680Z,102324.06
2019-02-12T10:55:26.923Z,102321.07
2019-02-12T10:57:55.355Z,102316.49
2019-02-12T11:00:23.660Z,102309.16
2019-02-12T11:02:51.977Z,102308.36
2019-02-12T11:05:20.356Z,102311.03
2019-02-12T11:07:48.714Z,102307.46
2019-02-12T11:10:16.989Z,102300.06
2019-02-12T11:12:45.267Z,102300.63
2019-02-12T11:15:13.535Z,102302.41
2019-02-12T11:17:41.816Z,102294.78
2019-02-12T11:20:10.375Z,102292.89
2019-02-12T11:22:38.617Z,102292.89
2019-02-12T11:25:08.957Z,102287.80
2019-02-12T11:27:39.250Z,102288.89
2019-02-12T11:30:12.283Z,102288.69
2019-02-12T11:32:40.536Z,102293.30
2019-02-12T11:35:11.586Z,102285.60
2019-02-12T11:37:39.934Z,102291.83
2019-02-12T11:40:13.460Z,102293.58
2019-02-12T11:42:41.786Z,102282.60
2019-02-12T11:45:12.408Z,102294.12
2019-02-12T11:47:40.655Z,102297.17
2019-02-12T11:50:10.087Z,102296.98
2019-02-12T11:52:38.341Z,102293.12
2019-02-12T11:55:12.420Z,102291.73
2019-02-12T11:57:40.691Z,102292.08
2019-02-12T12:00:15.794Z,102295.67
2019-02-12T12:02:44.073Z,102290.70
2019-02-12T12:05:12.372Z,102295.96
2019-02-12T12:07:40.625Z,102290.14
2019-02-12T12:10:10.476Z,102298.40
2019-02-12T12:12:38.818Z,102299.30
2019-02-12T12:15:12.484Z,102295.99
2019-02-12T12:17:40.756Z,102298.31
2019-02-12T12:20:11.498Z,102295.09
2019-02-12T12:22:39.800Z,102293.15
2019-02-12T12:25:10.128Z,102291.63
2019-02-12T12:27:38.398Z,102286.60
2019-02-12T12:30:13.951Z,102293.27
2019-02-12T12:32:42.219Z,102289.84
2019-02-12T12:35:11.423Z,102290.26
2019-02-12T12:37:39.667Z,102286.60
2019-02-12T12:40:12.676Z,102282.03
2019-02-12T12:42:40.963Z,102275.75
2019-02-12T12:45:11.949Z,102272.84
2019-02-12T12:47:40.213Z,102273.07
2019-02-12T12:50:10.654Z,102279.55
2019-02-12T12:52:38.877Z,102279.88
2019-02-12T12:55:08.817Z,102280.22
2019-02-12T12:57:41.824Z,102287.84
2019-02-12T13:00:10.389Z,102281.30
2019-02-12T13:02:38.727Z,102287.73
2019-02-12T13:05:07.531Z,102280.39
2019-02-12T13:07:35.991Z,102279.86
2019-02-12T13:10:06.459Z,102279.81
2019-02-12T13:12:34.836Z,102268.77
2019-02-12T13:15:03.091Z,102277.48
2019-02-12T13:17:31.363Z,102286.59
2019-02-12T13:19:59.640Z,102290.38
2019-02-12T13:22:27.898Z,102293.27
2019-02-12T13:24:56.212Z,102293.50
2019-02-12T13:27:24.908Z,102292.92
2019-02-12T13:29:53.158Z,102297.56
2019-02-12T13:32:21.424Z,102293.69
2019-02-12T13:34:51.451Z,102296.23
2019-02-12T13:37:19.752Z,102295.25
2019-02-12T13:39:48.008Z,102291.17
2019-02-12T13:42:16.301Z,102290.26
2019-02-12T13:44:44.589Z,102289.84
2019-02-12T13:47:13.268Z,102292.39
2019-02-12T13:49:41.521Z,102296.39
2019-02-12T13:52:09.897Z,102297.69
2019-02-12T13:54:41.108Z,102295.41
2019-02-12T13:57:09.460Z,102292.39
2019-02-12T13:59:37.751Z,102290.42
2019-02-12T14:02:06.039Z,102286.60
2019-02-12T14:04:34.286Z,102286.64
2019-02-12T14:07:02.569Z,102299.97
2019-02-12T14:09:31.066Z,102288.45
2019-02-12T14:11:59.579Z,102291.51
2019-02-12T14:14:27.836Z,102294.73
2019-02-12T14:16:56.115Z,102288.28
2019-02-12T14:19:24.406Z,102279.02
2019-02-12T14:21:52.655Z,102283.58
2019-02-12T14:24:20.978Z,102291.55
2019-02-12T14:26:49.277Z,102298.80
2019-02-12T14:29:17.590Z,102291.55
2019-02-12T14:31:52.820Z,102288.99
2019-02-12T14:34:15.984Z,102288.99
2019-02-12T14:36:44.662Z,102285.81
2019-02-12T14:39:12.915Z,102282.98
2019-02-12T14:41:41.227Z,102282.20
2019-02-12T14:44:09.733Z,102284.45
2019-02-12T14:46:38.442Z,102291.63
2019-02-12T14:49:06.870Z,102292.21
2019-02-12T14:51:35.493Z,102290.55
2019-02-12T14:54:03.856Z,102287.58
2019-02-12T14:56:32.454Z,102290.05
2019-02-12T14:59:00.723Z,102278.81
2019-02-12T15:01:29.245Z,102276.02
2019-02-12T15:03:57.781Z,102293.73
2019-02-12T15:06:26.035Z,102281.17
2019-02-12T15:08:54.331Z,102283.28
2019-02-12T15:11:22.605Z,102276.84
2019-02-12T15:13:50.872Z,102276.84
2019-02-12T15:16:19.169Z,102272.39
2019-02-12T15:18:47.806Z,102271.75
2019-02-12T15:21:16.067Z,102271.64
2019-02-12T15:23:44.506Z,102274.61
2019-02-12T15:26:12.964Z,102267.72
2019-02-12T15:28:41.220Z,102270.50
2019-02-12T15:31:09.670Z,102280.77
2019-02-12T15:33:37.915Z,102278.61
2019-02-12T15:36:06.224Z,102283.13
2019-02-12T15:38:34.575Z,102287.66
2019-02-12T15:41:02.898Z,102288.69
2019-02-12T15:43:31.265Z,102283.47
2019-02-12T15:45:59.573Z,102288.45
2019-02-12T15:48:28.188Z,102280.57
2019-02-12T15:50:56.456Z,102279.84
2019-02-12T15:53:25.010Z,102277.67
2019-02-12T15:55:53.291Z,102278.62
2019-02-12T15:58:21.548Z,102278.73
2019-02-12T16:00:49.836Z,102289.42
2019-02-12T16:03:20.566Z,102283.36
2019-02-12T16:05:49.061Z,102282.59
2019-02-12T16:08:17.402Z,102287.57
2019-02-12T16:10:45.688Z,102273.03
2019-02-12T16:13:13.973Z,102268.72
2019-02-12T16:15:44.846Z,102281.88
2019-02-12T16:18:12.622Z,102289.19
2019-02-12T16:20:40.946Z,102296.12
2019-02-12T16:23:09.242Z,102291.11
2019-02-12T16:25:37.585Z,102297.48
2019-02-12T16:28:06.135Z,102306.23
2019-02-12T16:30:34.385Z,102313.57
2019-02-12T16:33:02.826Z,102316.56
2019-02-12T16:35:31.111Z,102311.47
2019-02-12T16:38:00.326Z,102318.83
2019-02-12T16:40:28.748Z,102320.41
2019-02-12T16:42:57.223Z,102330.39
2019-02-12T16:45:29.015Z,102327.41
2019-02-12T16:47:57.470Z,102336.38
2019-02-12T16:50:25.906Z,102340.07
2019-02-12T16:52:54.218Z,102344.58
2019-02-12T16:55:22.467Z,102345.55
2019-02-12T16:57:50.726Z,102341.64
2019-02-12T17:00:19.005Z,102343.09
2019-02-12T17:02:47.288Z,102348.11
2019-02-12T17:05:15.833Z,102354.39
2019-02-12T17:07:45.236Z,102361.48
2019-02-12T17:10:14.029Z,102362.00
2019-02-12T17:12:42.458Z,102363.36
2019-02-12T17:15:13.262Z,102369.46
2019-02-12T17:17:41.525Z,102366.63
2019-02-12T17:20:15.470Z,102366.84
2019-02-12T17:22:43.743Z,102369.69
2019-02-12T17:25:12.017Z,102365.45
2019-02-12T17:27:40.271Z,102367.56
2019-02-12T17:30:13.543Z,102375.48
2019-02-12T17:32:41.867Z,102372.82
2019-02-12T17:35:10.520Z,102370.73
2019-02-12T17:37:38.858Z,102374.73
2019-02-12T17:40:10.134Z,102380.92
2019-02-12T17:42:38.770Z,102387.60
2019-02-12T17:45:15.463Z,102390.33
2019-02-12T17:47:43.802Z,102383.70
2019-02-12T17:50:15.667Z,102381.65
2019-02-12T17:52:43.918Z,102374.00
2019-02-12T17:55:12.245Z,102381.73
2019-02-12T17:57:40.537Z,102369.55
2019-02-12T18:00:21.541Z,102371.98
2019-02-12T18:02:49.793Z,102370.91
2019-02-12T18:05:18.058Z,102372.05
2019-02-12T18:07:46.356Z,102379.30
2019-02-12T18:10:14.639Z,102375.91
2019-02-12T18:12:42.981Z,102386.70
2019-02-12T18:15:13.861Z,102382.34
2019-02-12T18:17:42.121Z,102383.22
2019-02-12T18:20:12.245Z,102377.99
2019-02-12T18:22:40.495Z,102387.80
2019-02-12T18:25:10.231Z,102382.05
2019-02-12T18:27:38.860Z,102382.64
2019-02-12T18:30:13.536Z,102379.67
2019-02-12T18:32:41.788Z,102371.73
2019-02-12T18:35:11.679Z,102374.91
2019-02-12T18:37:40.089Z,102375.42
2019-02-12T18:40:16.651Z,102366.55
2019-02-12T18:42:44.903Z,102367.91
2019-02-12T18:45:22.150Z,102369.72
2019-02-12T18:47:50.427Z,102368.47
2019-02-12T18:50:18.768Z,102364.86
2019-02-12T18:52:47.354Z,102362.57
2019-02-12T18:55:16.550Z,102365.63
2019-02-12T18:57:44.843Z,102366.58
2019-02-12T19:00:18.766Z,102370.67
2019-02-12T19:02:47.368Z,102368.55
2019-02-12T19:05:15.626Z,102365.07
2019-02-12T19:07:43.877Z,102354.45
2019-02-12T19:10:14.203Z,102358.00
2019-02-12T19:12:42.473Z,102352.77
2019-02-12T19:15:13.173Z,102351.00
2019-02-12T19:17:42.199Z,102344.44
2019-02-12T19:20:13.141Z,102345.39
2019-02-12T19:22:41.481Z,102342.39
2019-02-12T19:25:10.781Z,102347.83
2019-02-12T19:27:39.161Z,102343.13
2019-02-12T19:30:16.391Z,102351.59
2019-02-12T19:32:44.655Z,102365.73
2019-02-12T19:35:12.976Z,102364.03
2019-02-12T19:37:41.237Z,102371.99
2019-02-12T19:40:11.702Z,102374.34
2019-02-12T19:42:39.960Z,102375.30
2019-02-12T19:45:13.129Z,102376.70
2019-02-12T19:47:41.473Z,102380.70
2019-02-12T19:50:11.010Z,102384.73
2019-02-12T19:52:39.397Z,102391.80
2019-02-12T19:55:11.121Z,102387.00
2019-02-12T19:57:39.466Z,102384.37
2019-02-12T20:00:17.193Z,102388.78
2019-02-12T20:02:45.498Z,102379.06
2019-02-12T20:05:13.972Z,102384.85
2019-02-12T20:07:42.265Z,102375.08
2019-02-12T20:10:11.945Z,102377.27
2019-02-12T20:12:40.230Z,102389.53
2019-02-12T20:15:11.844Z,102382.83
2019-02-12T20:17:40.320Z,102382.25
2019-02-12T20:20:10.700Z,102380.45
2019-02-12T20:22:39.104Z,102383.11
2019-02-12T20:25:08.787Z,102380.03
2019-02-12T20:27:37.049Z,102371.64
2019-02-12T20:30:11.459Z,102368.11
2019-02-12T20:32:39.787Z,102371.24
2019-02-12T20:35:11.182Z,102372.64
2019-02-12T20:37:39.767Z,102368.28
2019-02-12T20:40:10.494Z,102377.64
2019-02-12T20:42:38.825Z,102374.61
2019-02-12T20:45:10.322Z,102372.86
2019-02-12T20:47:38.741Z,102374.25
2019-02-12T20:50:12.366Z,102374.33
2019-02-12T20:52:40.616Z,102378.36
2019-02-12T20:55:09.662Z,102377.48
2019-02-12T20:57:37.925Z,102373.45
2019-02-12T21:00:09.868Z,102377.34
2019-02-12T21:02:38.148Z,102369.69
2019-02-12T21:05:09.341Z,102384.95
2019-02-12T21:07:39.094Z,102383.00
2019-02-12T21:10:10.455Z,102385.88
2019-02-12T21:12:38.745Z,102384.39
2019-02-12T21:15:10.258Z,102374.89
2019-02-12T21:17:38.512Z,102373.86
2019-02-12T21:20:10.633Z,102367.96
2019-02-12T21:22:40.144Z,102357.27
2019-02-12T21:25:13.163Z,102359.86
2019-02-12T21:27:41.467Z,102355.56
2019-02-12T21:30:15.342Z,102366.19
2019-02-12T21:32:42.959Z,102375.50
2019-02-12T21:35:13.197Z,102368.63
2019-02-12T21:37:41.487Z,102368.99
2019-02-12T21:40:12.780Z,102373.34
2019-02-12T21:42:42.694Z,102378.21
2019-02-12T21:45:12.811Z,102377.76
2019-02-12T21:47:41.244Z,102383.09
2019-02-12T21:50:11.045Z,102383.52
2019-02-12T21:52:39.295Z,102395.02
2019-02-12T21:55:12.405Z,102406.96
2019-02-12T21:57:40.788Z,102394.06
2019-02-12T22:00:14.725Z,102395.77
2019-02-12T22:02:43.028Z,102396.16
2019-02-12T22:05:13.324Z,102392.16
2019-02-12T22:07:43.247Z,102405.38
2019-02-12T22:10:23.342Z,102408.40
2019-02-12T22:12:51.619Z,102414.96
2019-02-12T22:15:21.512Z,102424.61
2019-02-12T22:17:51.472Z,102428.91
2019-02-12T22:20:22.128Z,102420.41
2019-02-12T22:22:50.383Z,102413.77
2019-02-12T22:25:18.661Z,102420.39
2019-02-12T22:27:46.960Z,102419.00
2019-02-12T22:30:20.112Z,102415.52
2019-02-12T22:32:48.351Z,102420.41
2019-02-12T22:35:16.628Z,102413.37
2019-02-12T22:37:44.921Z,102421.37
2019-02-12T22:40:15.845Z,102423.22
2019-02-12T22:42:44.140Z,102436.93
2019-02-12T22:45:14.740Z,102439.16
2019-02-12T22:47:43.109Z,102434.78
2019-02-12T22:50:12.344Z,102440.11
2019-02-12T22:52:40.601Z,102437.52
2019-02-12T22:55:10.190Z,102437.91
2019-02-12T22:57:38.489Z,102430.88
2019-02-12T23:00:12.754Z,102422.91
2019-02-12T23:02:40.448Z,102430.89
2019-02-12T23:05:08.819Z,102440.83
2019-02-12T23:07:37.094Z,102442.60
2019-02-12T23:10:08.396Z,102442.23
2019-02-12T23:12:36.720Z,102440.98
2019-02-12T23:15:07.376Z,102453.42
2019-02-12T23:17:35.627Z,102454.30
2019-02-12T23:20:05.644Z,102457.36
2019-02-12T23:22:33.924Z,102452.92
2019-02-12T23:25:02.204Z,102451.52
2019-02-12T23:27:30.544Z,102443.48
2019-02-12T23:29:58.820Z,102442.98
2019-02-12T23:32:27.105Z,102446.44
2019-02-12T23:34:57.206Z,102446.80
2019-02-12T23:37:25.450Z,102444.55
2019-02-12T23:39:53.729Z,102444.08
2019-02-12T23:42:21.978Z,102453.37
2019-02-12T23:44:50.269Z,102448.06
2019-02-12T23:47:18.555Z,102447.20
2019-02-12T23:49:46.877Z,102442.84
2019-02-12T23:52:15.151Z,102454.03
2019-02-12T23:54:43.405Z,102453.67
2019-02-12T23:57:11.659Z,102460.01
2019-02-12T23:59:41.581Z,102460.53
